createdAt,value
2023-05-16T00:00:54.357Z,1.70
2023-05-16T00:03:22.528Z,2.37
2023-05-16T00:05:50.759Z,2.93
2023-05-16T00:08:19.143Z,2.10
2023-05-16T00:10:47.347Z,2.47
2023-05-16T00:13:15.631Z,2.03
2023-05-16T00:15:45.672Z,2.67
2023-05-16T00:18:16.765Z,2.23
2023-05-16T00:20:44.898Z,1.63
2023-05-16T00:23:13.048Z,2.23
2023-05-16T00:25:41.098Z,2.03
2023-05-16T00:28:09.351Z,1.73
2023-05-16T00:30:37.492Z,2.60
2023-05-16T00:33:07.030Z,2.10
2023-05-16T00:35:35.107Z,2.17
2023-05-16T00:38:03.171Z,1.87
2023-05-16T00:40:31.562Z,1.80
2023-05-16T00:42:59.891Z,1.73
2023-05-16T00:45:28.013Z,2.03
2023-05-16T00:47:56.419Z,1.80
2023-05-16T00:50:26.211Z,2.60
2023-05-16T00:52:54.652Z,1.60
2023-05-16T00:55:23.241Z,1.70
2023-05-16T00:57:51.878Z,1.73
2023-05-16T01:00:20.494Z,1.63
2023-05-16T01:02:48.643Z,1.77
2023-05-16T01:05:16.800Z,1.73
2023-05-16T01:07:46.530Z,1.47
2023-05-16T01:10:14.804Z,2.13
2023-05-16T01:12:58.257Z,1.87
2023-05-16T01:15:30.289Z,2.33
2023-05-16T01:18:09.550Z,1.50
2023-05-16T01:20:44.059Z,1.37
2023-05-16T01:23:34.062Z,2.03
2023-05-16T01:26:24.876Z,2.27
2023-05-16T01:28:53.804Z,1.47
2023-05-16T01:31:22.268Z,1.63
2023-05-16T01:33:51.024Z,2.10
2023-05-16T01:36:25.936Z,2.00
2023-05-16T01:39:05.609Z,2.27
2023-05-16T01:41:47.604Z,1.90
2023-05-16T01:44:24.693Z,1.90
2023-05-16T01:46:59.238Z,2.50
2023-05-16T01:49:32.521Z,2.50
2023-05-16T01:52:06.028Z,2.77
2023-05-16T01:54:38.464Z,2.30
2023-05-16T01:57:10.031Z,1.90
2023-05-16T01:59:39.828Z,2.00
2023-05-16T02:02:07.872Z,2.87
2023-05-16T02:04:35.975Z,2.30
2023-05-16T02:07:04.103Z,1.90
2023-05-16T02:09:32.184Z,2.50
2023-05-16T02:12:00.416Z,2.10
2023-05-16T02:14:29.876Z,2.23
2023-05-16T02:16:58.439Z,2.27
2023-05-16T02:19:26.596Z,2.80
2023-05-16T02:21:54.646Z,3.53
2023-05-16T02:24:22.720Z,1.80
2023-05-16T02:26:50.762Z,2.30
2023-05-16T02:29:19.781Z,2.23
2023-05-16T02:31:49.342Z,1.87
2023-05-16T02:34:17.692Z,3.43
2023-05-16T02:36:46.266Z,2.07
2023-05-16T02:39:14.332Z,2.20
2023-05-16T02:41:42.353Z,3.10
2023-05-16T02:44:11.018Z,2.67
2023-05-16T02:46:39.097Z,1.63
2023-05-16T02:49:08.572Z,1.80
2023-05-16T02:51:36.710Z,2.03
2023-05-16T02:54:04.869Z,1.47
2023-05-16T02:56:33.042Z,2.10
2023-05-16T02:59:01.709Z,1.80
2023-05-16T03:07:01.884Z,2.63
2023-05-16T03:09:29.982Z,1.90
2023-05-16T03:11:59.560Z,1.87
2023-05-16T03:14:27.612Z,1.70
2023-05-16T03:16:55.798Z,1.40
2023-05-16T03:19:23.996Z,1.77
2023-05-16T03:21:52.129Z,1.53
2023-05-16T03:24:23.104Z,2.10
2023-05-16T03:26:51.405Z,1.53
2023-05-16T03:29:19.657Z,1.80
2023-05-16T03:31:47.882Z,2.00
2023-05-16T03:34:16.048Z,1.70
2023-05-16T03:36:44.366Z,1.80
2023-05-16T03:39:12.455Z,1.43
2023-05-16T03:41:41.893Z,1.80
2023-05-16T03:44:09.990Z,2.10
2023-05-16T03:46:38.218Z,2.53
2023-05-16T03:49:06.367Z,1.93
2023-05-16T03:51:34.465Z,3.30
2023-05-16T03:54:02.620Z,2.37
2023-05-16T03:56:30.750Z,2.17
2023-05-16T03:59:00.213Z,2.60
2023-05-16T04:01:28.326Z,3.03
2023-05-16T04:03:56.682Z,2.23
2023-05-16T04:06:24.793Z,2.00
2023-05-16T04:08:52.982Z,3.00
2023-05-16T04:11:21.513Z,2.30
2023-05-16T04:13:50.077Z,1.80
2023-05-16T04:16:19.552Z,2.53
2023-05-16T04:18:47.876Z,2.70
2023-05-16T04:21:16.174Z,2.43
2023-05-16T04:23:44.337Z,2.43
2023-05-16T04:26:12.855Z,1.70
2023-05-16T04:28:41.343Z,2.17
2023-05-16T04:31:09.581Z,1.97
2023-05-16T04:33:39.030Z,2.40
2023-05-16T04:36:07.627Z,2.27
2023-05-16T04:38:35.998Z,2.37
2023-05-16T04:41:04.129Z,2.30
2023-05-16T04:43:32.351Z,2.37
2023-05-16T04:46:00.553Z,2.20
2023-05-16T04:48:28.762Z,2.10
2023-05-16T04:50:58.617Z,2.60
2023-05-16T04:53:26.720Z,2.47
2023-05-16T04:55:55.332Z,2.30
2023-05-16T04:58:24.217Z,2.23
2023-05-16T05:00:53.071Z,2.10
2023-05-16T05:03:21.450Z,2.63
2023-05-16T05:05:49.781Z,2.37
2023-05-16T05:08:51.590Z,2.30
2023-05-16T05:11:19.913Z,2.63
2023-05-16T05:13:48.921Z,2.63
2023-05-16T05:16:18.477Z,2.33
2023-05-16T05:26:30.144Z,2.13
2023-05-16T05:29:05.472Z,2.17
2023-05-16T05:31:35.232Z,1.57
2023-05-16T05:34:03.744Z,1.83
2023-05-16T05:36:32.049Z,1.77
2023-05-16T05:39:00.138Z,2.50
2023-05-16T05:41:29.787Z,1.77
2023-05-16T05:43:57.876Z,2.07
2023-05-16T05:46:26.597Z,1.50
2023-05-16T05:48:54.815Z,1.60
2023-05-16T05:51:22.990Z,2.73
2023-05-16T05:53:51.191Z,1.90
2023-05-16T05:56:19.486Z,2.03
2023-05-16T05:58:49.144Z,1.17
2023-05-16T06:01:17.283Z,1.70
2023-05-16T06:03:45.589Z,1.67
2023-05-16T06:06:15.054Z,3.07
2023-05-16T06:08:43.285Z,1.50
2023-05-16T06:11:11.355Z,1.70
2023-05-16T06:13:39.490Z,1.17
2023-05-16T06:16:09.693Z,1.70
2023-05-16T06:18:38.029Z,1.60
2023-05-16T06:21:06.986Z,1.07
2023-05-16T06:23:36.109Z,1.30
2023-05-16T06:26:04.470Z,1.60
2023-05-16T06:28:32.812Z,1.40
2023-05-16T06:31:01.248Z,2.13
2023-05-16T06:33:31.078Z,2.15
2023-05-16T06:35:59.229Z,1.65
2023-05-16T06:38:27.323Z,1.60
2023-05-16T06:40:55.423Z,1.30
2023-05-16T06:43:23.568Z,1.20
2023-05-16T06:45:51.898Z,1.52
2023-05-16T06:48:20.548Z,1.63
2023-05-16T06:50:51.913Z,1.13
2023-05-16T06:53:20.774Z,1.63
2023-05-16T06:55:49.145Z,2.17
2023-05-16T06:58:17.451Z,1.70
2023-05-16T07:00:45.601Z,1.20
2023-05-16T07:03:14.185Z,1.52
2023-05-16T07:05:42.630Z,1.40
2023-05-16T07:08:12.298Z,1.30
2023-05-16T07:10:40.968Z,1.80
2023-05-16T07:13:09.096Z,1.23
2023-05-16T07:27:11.215Z,1.13
2023-05-16T07:29:40.212Z,1.02
2023-05-16T07:32:09.144Z,1.08
2023-05-16T07:34:37.341Z,1.30
2023-05-16T07:37:07.812Z,1.85
2023-05-16T07:39:35.913Z,1.20
2023-05-16T07:42:04.055Z,1.30
2023-05-16T07:44:33.528Z,1.23
2023-05-16T07:47:01.705Z,1.23
2023-05-16T07:49:29.831Z,0.80
2023-05-16T07:51:57.957Z,1.20
2023-05-16T07:54:26.185Z,1.20
2023-05-16T07:56:54.695Z,1.17
2023-05-16T07:59:22.849Z,0.98
2023-05-16T08:01:52.745Z,0.85
2023-05-16T08:04:21.252Z,0.77
2023-05-16T08:06:49.463Z,0.75
2023-05-16T08:09:17.617Z,1.10
2023-05-16T08:11:46.439Z,1.17
2023-05-16T08:14:14.533Z,1.02
2023-05-16T08:16:42.691Z,0.77
2023-05-16T08:19:12.371Z,1.33
2023-05-16T08:21:40.884Z,1.08
2023-05-16T08:24:11.283Z,0.93
2023-05-16T08:26:39.431Z,1.10
2023-05-16T08:29:07.597Z,1.20
2023-05-16T08:31:35.886Z,0.80
2023-05-16T08:34:06.460Z,1.10
2023-05-16T08:36:36.313Z,0.82
2023-05-16T08:39:04.711Z,0.77
2023-05-16T08:41:33.132Z,0.90
2023-05-16T08:44:01.339Z,0.93
2023-05-16T08:46:31.050Z,1.23
2023-05-16T08:49:03.786Z,1.10
2023-05-16T08:51:36.526Z,1.02
2023-05-16T08:54:07.447Z,1.02
2023-05-16T08:56:37.096Z,0.60
2023-05-16T08:59:06.320Z,0.73
2023-05-16T09:01:34.740Z,0.83
2023-05-16T09:04:04.369Z,0.53
2023-05-16T09:06:32.578Z,0.60
2023-05-16T09:09:02.649Z,0.40
2023-05-16T09:11:30.900Z,0.60
2023-05-16T09:14:00.215Z,0.50
2023-05-16T09:16:28.420Z,1.07
2023-05-16T09:18:58.584Z,0.70
2023-05-16T09:21:29.621Z,0.47
2023-05-16T09:23:58.084Z,0.90
2023-05-16T09:26:27.828Z,0.70
2023-05-16T09:28:56.730Z,0.73
2023-05-16T09:31:27.084Z,0.80
2023-05-16T09:33:56.979Z,1.20
2023-05-16T09:36:25.376Z,1.10
2023-05-16T09:38:53.847Z,2.15
2023-05-16T09:41:23.583Z,1.08
2023-05-16T09:43:53.081Z,0.60
2023-05-16T09:46:26.900Z,0.88
2023-05-16T09:48:56.309Z,0.60
2023-05-16T09:51:24.694Z,0.70
2023-05-16T09:53:53.054Z,0.85
2023-05-16T09:56:21.545Z,1.23
2023-05-16T09:58:53.026Z,0.70
2023-05-16T10:01:22.608Z,1.25
2023-05-16T10:03:51.992Z,0.98
2023-05-16T10:06:20.719Z,1.00
2023-05-16T10:08:49.874Z,1.25
2023-05-16T10:11:19.392Z,0.95
2023-05-16T10:13:53.015Z,0.80
2023-05-16T10:16:24.580Z,0.75
2023-05-16T10:18:53.516Z,0.68
2023-05-16T10:21:24.240Z,1.10
2023-05-16T10:23:53.862Z,1.10
2023-05-16T10:26:23.700Z,0.82
2023-05-16T10:28:52.268Z,0.80
2023-05-16T10:31:20.782Z,0.82
2023-05-16T10:33:50.657Z,0.80
2023-05-16T10:36:19.129Z,1.02
2023-05-16T10:38:48.962Z,0.80
2023-05-16T10:41:17.515Z,0.88
2023-05-16T10:43:46.868Z,0.60
2023-05-16T10:46:16.051Z,0.80
2023-05-16T10:48:44.244Z,0.52
2023-05-16T10:51:37.573Z,0.82
2023-05-16T10:54:10.902Z,0.70
2023-05-16T10:56:39.324Z,0.90
2023-05-16T10:59:25.212Z,0.90
2023-05-16T11:01:57.628Z,0.88
2023-05-16T11:04:45.930Z,0.65
2023-05-16T11:07:16.414Z,0.50
2023-05-16T11:09:46.163Z,0.70
2023-05-16T11:12:15.691Z,0.65
2023-05-16T11:14:45.217Z,0.70
2023-05-16T11:17:15.124Z,0.70
2023-05-16T11:19:45.858Z,0.70
2023-05-16T11:22:26.660Z,1.23
2023-05-16T11:24:57.316Z,0.70
2023-05-16T11:27:30.925Z,0.57
2023-05-16T11:30:04.467Z,1.00
2023-05-16T11:32:35.374Z,0.67
2023-05-16T11:35:04.787Z,0.88
2023-05-16T11:37:34.446Z,0.85
2023-05-16T11:40:03.644Z,1.17
2023-05-16T11:42:34.006Z,1.20
2023-05-16T11:45:06.831Z,0.77
2023-05-16T11:47:35.530Z,0.67
2023-05-16T11:50:05.815Z,1.43
2023-05-16T11:52:35.464Z,0.93
2023-05-16T11:55:04.740Z,0.90
2023-05-16T11:57:32.998Z,0.90
2023-05-16T12:00:07.894Z,0.68
2023-05-16T12:02:36.184Z,0.98
2023-05-16T12:05:10.035Z,0.77
2023-05-16T12:07:39.786Z,0.88
2023-05-16T12:10:09.001Z,0.98
2023-05-16T12:12:38.324Z,1.10
2023-05-16T12:15:08.126Z,0.82
2023-05-16T12:17:37.034Z,0.80
2023-05-16T12:20:06.816Z,1.05
2023-05-16T12:22:35.322Z,1.13
2023-05-16T12:25:29.816Z,0.90
2023-05-16T12:27:59.808Z,0.70
2023-05-16T12:30:29.516Z,0.95
2023-05-16T12:32:58.639Z,0.77
2023-05-16T12:35:27.182Z,0.75
2023-05-16T12:37:56.421Z,0.70
2023-05-16T12:40:24.979Z,0.98
2023-05-16T12:42:55.186Z,1.05
2023-05-16T12:45:24.164Z,0.65
2023-05-16T12:47:52.309Z,1.00
2023-05-16T12:50:20.731Z,0.90
2023-05-16T12:52:50.770Z,1.20
2023-05-16T12:55:19.235Z,0.60
2023-05-16T12:57:48.922Z,0.93
2023-05-16T13:00:20.805Z,0.95
2023-05-16T13:02:49.627Z,0.70
2023-05-16T13:05:18.642Z,0.47
2023-05-16T13:07:46.809Z,0.70
2023-05-16T13:10:14.986Z,0.90
2023-05-16T13:12:43.315Z,0.80
2023-05-16T13:15:13.094Z,0.90
2023-05-16T13:17:44.830Z,0.70
2023-05-16T13:20:15.020Z,0.83
2023-05-16T13:22:44.595Z,0.80
2023-05-16T13:25:13.255Z,0.93
2023-05-16T13:27:42.169Z,1.30
2023-05-16T13:30:11.749Z,1.07
2023-05-16T13:32:40.152Z,0.90
2023-05-16T13:35:10.377Z,1.23
2023-05-16T13:37:39.383Z,0.87
2023-05-16T13:40:10.452Z,0.90
2023-05-16T13:42:39.308Z,1.40
2023-05-16T13:45:08.318Z,0.40
2023-05-16T13:47:36.972Z,1.80
2023-05-16T13:50:09.270Z,0.83
2023-05-16T13:52:39.427Z,0.87
2023-05-16T13:55:08.496Z,1.00
2023-05-16T13:57:36.830Z,0.80
2023-05-16T14:00:35.337Z,0.60
2023-05-16T14:03:00.604Z,0.70
2023-05-16T14:05:28.976Z,0.80
2023-05-16T14:07:58.487Z,1.23
2023-05-16T14:10:27.103Z,0.93
2023-05-16T14:12:55.590Z,1.33
2023-05-16T14:15:23.688Z,0.97
2023-05-16T14:17:51.802Z,1.00
2023-05-16T14:20:20.016Z,0.90
2023-05-16T14:22:48.332Z,1.10
2023-05-16T14:25:17.976Z,1.00
2023-05-16T14:27:46.156Z,0.90
2023-05-16T14:30:14.865Z,1.03
2023-05-16T14:32:43.064Z,0.80
2023-05-16T14:35:11.758Z,1.20
2023-05-16T14:37:39.981Z,1.00
2023-05-16T14:40:10.379Z,1.30
2023-05-16T14:42:40.165Z,0.93
2023-05-16T14:45:09.630Z,1.10
2023-05-16T14:47:37.876Z,1.27
2023-05-16T14:50:07.141Z,0.83
2023-05-16T14:52:35.398Z,1.20
2023-05-16T14:55:04.181Z,0.80
2023-05-16T14:57:32.800Z,1.40
2023-05-16T15:00:02.427Z,2.07
2023-05-16T15:02:30.633Z,1.13
2023-05-16T15:04:58.851Z,1.57
2023-05-16T15:07:27.142Z,1.13
2023-05-16T15:09:55.727Z,1.20
2023-05-16T15:12:23.823Z,1.53
2023-05-16T15:14:51.913Z,1.00
2023-05-16T15:17:21.823Z,1.37
2023-05-16T15:19:50.027Z,1.20
2023-05-16T15:22:18.187Z,1.10
2023-05-16T15:24:46.399Z,1.07
2023-05-16T15:27:14.594Z,0.80
2023-05-16T15:29:42.751Z,1.10
2023-05-16T15:32:13.716Z,1.50
2023-05-16T15:34:43.384Z,1.10
2023-05-16T15:37:11.633Z,1.00
2023-05-16T15:39:39.810Z,0.70
2023-05-16T15:42:11.103Z,0.73
2023-05-16T15:44:39.935Z,1.03
2023-05-16T15:47:08.996Z,0.80
2023-05-16T15:49:37.256Z,1.00
2023-05-16T15:52:07.212Z,0.73
2023-05-16T15:54:35.511Z,0.90
2023-05-16T15:57:03.750Z,1.40
2023-05-16T15:59:31.873Z,1.37
2023-05-16T16:02:04.188Z,1.13
2023-05-16T16:04:32.900Z,1.20
2023-05-16T16:07:01.032Z,0.90
2023-05-16T16:09:30.566Z,0.90
2023-05-16T16:11:58.659Z,1.13
2023-05-16T16:14:27.143Z,1.00
2023-05-16T16:16:55.315Z,1.10
2023-05-16T16:19:23.656Z,1.47
2023-05-16T16:21:52.124Z,2.23
2023-05-16T16:24:21.191Z,1.10
2023-05-16T16:26:50.679Z,0.70
2023-05-16T16:29:18.795Z,0.80
2023-05-16T16:31:47.323Z,1.17
2023-05-16T16:34:15.484Z,1.27
2023-05-16T16:36:43.606Z,1.00
2023-05-16T16:39:11.721Z,1.00
2023-05-16T16:41:39.959Z,0.70
2023-05-16T16:44:09.496Z,1.23
2023-05-16T16:50:28.092Z,0.90
2023-05-16T16:52:56.290Z,0.97
2023-05-16T16:55:24.379Z,0.90
2023-05-16T16:57:52.515Z,0.80
2023-05-16T17:00:22.443Z,0.80
2023-05-16T17:02:50.883Z,0.90
2023-05-16T17:05:19.339Z,0.90
2023-05-16T17:07:47.864Z,1.20
2023-05-16T17:10:16.863Z,0.80
2023-05-16T17:12:49.845Z,1.10
2023-05-16T17:15:18.516Z,1.47
2023-05-16T17:17:49.163Z,0.87
2023-05-16T17:20:17.514Z,0.97
2023-05-16T17:22:46.126Z,0.83
2023-05-16T17:25:14.230Z,1.30
2023-05-16T17:27:43.219Z,0.70
2023-05-16T17:30:12.071Z,0.90
2023-05-16T17:32:40.757Z,1.00
2023-05-16T17:35:10.656Z,1.00
2023-05-16T17:37:39.201Z,1.43
2023-05-16T17:40:10.476Z,1.00
2023-05-16T17:42:38.988Z,0.87
2023-05-16T17:45:08.322Z,0.90
2023-05-16T17:47:36.463Z,0.90
2023-05-16T17:50:05.578Z,1.30
2023-05-16T17:52:36.809Z,1.10
2023-05-16T17:58:55.915Z,0.83
2023-05-16T18:01:24.047Z,0.80
2023-05-16T18:03:52.144Z,1.10
2023-05-16T18:06:20.327Z,1.17
2023-05-16T18:08:49.872Z,1.13
2023-05-16T18:11:18.432Z,0.90
2023-05-16T18:13:46.619Z,0.70
2023-05-16T18:16:14.850Z,1.00
2023-05-16T18:18:43.049Z,0.80
2023-05-16T18:21:11.330Z,1.03
2023-05-16T18:23:39.425Z,1.37
2023-05-16T18:26:09.286Z,0.93
2023-05-16T18:28:37.532Z,0.87
2023-05-16T18:31:05.645Z,1.40
2023-05-16T18:33:33.946Z,0.80
2023-05-16T18:36:02.106Z,1.17
2023-05-16T18:38:33.222Z,1.30
2023-05-16T18:41:02.039Z,1.00
2023-05-16T18:43:35.185Z,1.10
2023-05-16T18:46:03.717Z,1.23
2023-05-16T18:48:32.821Z,1.00
2023-05-16T18:51:02.152Z,1.00
2023-05-16T18:53:30.318Z,1.10
2023-05-16T18:55:58.667Z,1.13
2023-05-16T18:58:28.702Z,0.83
2023-05-16T19:00:58.186Z,1.07
2023-05-16T19:11:38.244Z,1.20
2023-05-16T19:14:06.608Z,1.10
2023-05-16T19:16:36.119Z,1.53
2023-05-16T19:19:05.761Z,1.47
2023-05-16T19:21:34.090Z,1.20
2023-05-16T19:24:02.355Z,1.20
2023-05-16T19:26:31.037Z,1.20
2023-05-16T19:28:59.241Z,1.07
2023-05-16T19:32:30.595Z,1.47
2023-05-16T19:35:00.266Z,1.50
2023-05-16T19:37:28.495Z,1.40
2023-05-16T19:39:56.661Z,1.20
2023-05-16T19:42:24.755Z,0.90
2023-05-16T19:44:52.849Z,1.17
2023-05-16T19:47:21.018Z,1.07
2023-05-16T19:49:49.206Z,1.07
2023-05-16T19:52:18.689Z,1.20
2023-05-16T19:54:46.757Z,1.27
2023-05-16T19:57:14.849Z,1.83
2023-05-16T19:59:42.927Z,1.50
2023-05-16T20:02:11.066Z,1.50
2023-05-16T20:04:39.237Z,2.00
2023-05-16T20:07:07.839Z,1.60
2023-05-16T20:09:37.405Z,1.83
2023-05-16T20:12:06.358Z,2.00
2023-05-16T20:14:34.443Z,2.27
2023-05-16T20:17:02.577Z,1.60
2023-05-16T20:19:30.808Z,1.87
2023-05-16T20:21:59.280Z,1.80
2023-05-16T20:24:27.358Z,1.50
2023-05-16T20:26:56.854Z,1.93
2023-05-16T20:30:01.999Z,2.33
2023-05-16T20:32:30.157Z,2.10
2023-05-16T20:34:58.420Z,1.90
2023-05-16T20:37:26.878Z,2.00
2023-05-16T20:39:55.408Z,1.90
2023-05-16T20:42:24.911Z,2.00
2023-05-16T20:44:53.067Z,2.27
2023-05-16T20:47:21.538Z,2.00
2023-05-16T20:49:49.690Z,2.00
2023-05-16T20:52:18.613Z,1.77
2023-05-16T20:54:48.014Z,1.73
2023-05-16T20:57:16.191Z,2.20
2023-05-16T20:59:45.738Z,2.87
2023-05-16T21:02:31.937Z,2.47
2023-05-16T21:05:09.933Z,2.60
2023-05-16T21:07:48.154Z,2.57
2023-05-16T21:10:16.406Z,2.73
2023-05-16T21:12:44.543Z,2.10
2023-05-16T21:15:14.013Z,2.60
2023-05-16T21:17:42.298Z,3.10
2023-05-16T21:20:11.153Z,3.30
2023-05-16T21:22:39.276Z,2.63
2023-05-16T21:26:00.387Z,2.77
2023-05-16T21:28:29.889Z,3.13
2023-05-16T21:30:59.521Z,3.30
2023-05-16T21:33:28.008Z,3.50
2023-05-16T21:35:56.330Z,2.87
2023-05-16T21:38:24.588Z,3.13
2023-05-16T21:40:52.781Z,3.33
2023-05-16T21:43:20.910Z,3.13
2023-05-16T21:45:48.999Z,3.07
2023-05-16T21:48:18.666Z,2.83
2023-05-16T21:50:46.787Z,3.00
2023-05-16T21:53:14.967Z,2.73
2023-05-16T21:55:43.775Z,2.73
2023-05-16T21:58:11.940Z,3.00
2023-05-16T22:00:40.110Z,2.67
2023-05-16T22:03:08.322Z,2.50
2023-05-16T22:05:37.927Z,2.63
2023-05-16T22:08:07.887Z,2.73
2023-05-16T22:10:36.029Z,2.43
2023-05-16T22:13:04.156Z,3.53
2023-05-16T22:15:32.294Z,2.60
2023-05-16T22:18:00.468Z,2.10
2023-05-16T22:20:29.712Z,2.20
2023-05-16T22:22:59.346Z,2.03
2023-05-16T22:25:29.472Z,2.70
2023-05-16T22:27:57.694Z,2.10
2023-05-16T22:30:26.186Z,1.93
2023-05-16T22:32:54.818Z,2.83
2023-05-16T22:35:23.749Z,2.93
2023-05-16T22:37:51.888Z,1.80
2023-05-16T22:40:21.670Z,2.50
2023-05-16T22:42:49.737Z,2.23
2023-05-16T22:45:17.867Z,2.77
2023-05-16T22:47:46.048Z,2.33
2023-05-16T22:50:14.315Z,2.73
2023-05-16T22:52:42.401Z,2.60
2023-05-16T22:55:11.117Z,2.23
2023-05-16T22:57:40.785Z,2.63
2023-05-16T23:00:10.147Z,2.80
2023-05-16T23:02:38.286Z,2.63
2023-05-16T23:05:07.330Z,2.90
2023-05-16T23:07:35.448Z,2.57
2023-05-16T23:10:04.129Z,2.90
2023-05-16T23:12:32.219Z,3.73
2023-05-16T23:15:01.735Z,2.90
2023-05-16T23:17:29.885Z,2.80
2023-05-16T23:19:58.047Z,2.63
2023-05-16T23:22:26.232Z,3.70
2023-05-16T23:24:54.342Z,3.07
2023-05-16T23:27:22.453Z,3.10
2023-05-16T23:29:50.587Z,3.03
2023-05-16T23:32:20.150Z,2.97
2023-05-16T23:34:48.233Z,3.40
2023-05-16T23:37:16.649Z,3.03
2023-05-16T23:39:44.753Z,3.13
2023-05-16T23:42:13.094Z,3.23
2023-05-16T23:44:41.974Z,2.97
2023-05-16T23:47:10.125Z,3.50
2023-05-16T23:49:39.628Z,4.17
2023-05-16T23:52:08.193Z,3.20
2023-05-16T23:54:36.396Z,3.63
2023-05-16T23:57:04.634Z,3.53
2023-05-16T23:59:32.752Z,4.03
